createdAt,value
2023-04-09T00:02:10.390Z,65.51
2023-04-09T00:04:37.037Z,65.75
2023-04-09T00:07:03.515Z,66.09
2023-04-09T00:09:30.341Z,66.11
2023-04-09T00:11:58.200Z,66.76
2023-04-09T00:14:24.830Z,66.32
2023-04-09T00:16:51.284Z,66.27
2023-04-09T00:19:17.741Z,66.12
2023-04-09T00:21:44.253Z,66.67
2023-04-09T00:24:10.730Z,66.64
2023-04-09T00:26:37.230Z,66.67
2023-04-09T00:29:03.749Z,67.19
2023-04-09T00:31:30.429Z,67.94
2023-04-09T00:33:56.918Z,67.68
2023-04-09T00:36:24.704Z,67.81
2023-04-09T00:38:54.156Z,67.77
2023-04-09T00:41:20.857Z,68.05
2023-04-09T00:43:47.310Z,68.14
2023-04-09T00:46:13.910Z,67.52
2023-04-09T00:48:40.916Z,67.85
2023-04-09T00:51:08.038Z,68.28
2023-04-09T00:53:34.706Z,67.56
2023-04-09T00:56:01.766Z,67.87
2023-04-09T00:58:28.289Z,68.65
2023-04-09T01:00:54.742Z,68.47
2023-04-09T01:03:21.363Z,68.67
2023-04-09T01:06:08.252Z,69.26
2023-04-09T01:08:56.112Z,69.53
2023-04-09T01:11:31.572Z,69.64
2023-04-09T01:14:01.263Z,70.21
2023-04-09T01:16:29.048Z,70.19
2023-04-09T01:19:01.625Z,69.52
2023-04-09T01:21:32.523Z,69.54
2023-04-09T01:24:29.978Z,69.30
2023-04-09T01:27:05.623Z,69.07
2023-04-09T01:29:35.923Z,69.26
2023-04-09T01:32:02.549Z,69.57
2023-04-09T01:34:29.078Z,69.28
2023-04-09T01:36:56.994Z,69.61
2023-04-09T01:39:23.566Z,68.84
2023-04-09T01:41:50.512Z,69.23
2023-04-09T01:44:17.113Z,69.53
2023-04-09T01:46:43.623Z,68.70
2023-04-09T01:49:10.415Z,69.53
2023-04-09T01:51:37.206Z,70.42
2023-04-09T01:54:04.055Z,69.63
2023-04-09T01:57:00.069Z,69.45
2023-04-09T01:59:26.566Z,70.08
2023-04-09T02:02:11.089Z,70.81
2023-04-09T02:04:40.596Z,71.49
2023-04-09T02:07:11.236Z,73.61
2023-04-09T02:09:39.279Z,74.14
2023-04-09T02:12:06.711Z,74.60
2023-04-09T02:14:33.315Z,73.61
2023-04-09T02:17:00.487Z,72.78
2023-04-09T02:19:44.668Z,71.08
2023-04-09T02:22:11.543Z,70.47
2023-04-09T02:24:38.227Z,72.14
2023-04-09T02:27:04.772Z,71.83
2023-04-09T02:29:31.342Z,71.01
2023-04-09T02:31:57.853Z,70.41
2023-04-09T02:34:24.472Z,70.66
2023-04-09T02:36:50.929Z,70.56
2023-04-09T02:39:17.383Z,70.59
2023-04-09T02:41:44.457Z,70.67
2023-04-09T02:44:10.906Z,70.62
2023-04-09T02:46:38.765Z,69.80
2023-04-09T02:49:05.280Z,71.83
2023-04-09T02:51:31.746Z,72.17
2023-04-09T02:53:58.198Z,72.91
2023-04-09T02:56:24.663Z,71.72
2023-04-09T02:58:53.979Z,71.33
2023-04-09T03:01:20.907Z,70.79
2023-04-09T03:03:47.578Z,71.32
2023-04-09T03:06:14.118Z,72.38
2023-04-09T03:08:40.563Z,71.99
2023-04-09T03:11:07.191Z,73.21
2023-04-09T03:13:33.651Z,72.83
2023-04-09T03:16:00.169Z,72.98
2023-04-09T03:18:26.691Z,72.00
2023-04-09T03:20:53.142Z,72.05
2023-04-09T03:23:19.592Z,73.82
2023-04-09T03:25:46.110Z,73.92
2023-04-09T03:28:12.590Z,73.97
2023-04-09T03:30:39.060Z,73.50
2023-04-09T03:33:05.660Z,73.82
2023-04-09T03:35:32.216Z,73.61
2023-04-09T03:37:58.700Z,73.76
2023-04-09T03:40:25.513Z,73.50
2023-04-09T03:42:51.991Z,73.03
2023-04-09T03:45:18.458Z,73.21
2023-04-09T03:47:45.188Z,73.70
2023-04-09T03:50:11.750Z,73.46
2023-04-09T03:52:38.263Z,73.84
2023-04-09T03:55:05.140Z,73.78
2023-04-09T03:57:31.680Z,73.61
2023-04-09T03:59:58.157Z,74.15
2023-04-09T04:02:27.073Z,74.33
2023-04-09T04:04:53.801Z,74.19
2023-04-09T04:07:20.244Z,73.53
2023-04-09T04:09:46.706Z,73.75
2023-04-09T04:12:13.170Z,73.73
2023-04-09T04:14:39.631Z,73.97
2023-04-09T04:17:06.105Z,73.62
2023-04-09T04:19:32.574Z,74.52
2023-04-09T04:21:59.046Z,73.37
2023-04-09T04:24:25.585Z,74.33
2023-04-09T04:26:52.035Z,73.91
2023-04-09T04:29:18.534Z,73.94
2023-04-09T04:31:45.228Z,73.66
2023-04-09T04:34:11.688Z,73.93
2023-04-09T04:36:38.204Z,73.99
2023-04-09T04:39:04.685Z,74.32
2023-04-09T04:41:31.216Z,73.62
2023-04-09T04:43:57.675Z,73.12
2023-04-09T04:46:24.177Z,73.28
2023-04-09T04:48:50.943Z,73.43
2023-04-09T04:51:17.574Z,73.36
2023-04-09T04:53:44.077Z,73.82
2023-04-09T04:56:16.509Z,74.11
2023-04-09T04:58:43.258Z,75.34
2023-04-09T05:01:09.748Z,74.65
2023-04-09T05:03:36.237Z,74.91
2023-04-09T05:06:03.001Z,74.20
2023-04-09T05:08:30.119Z,74.70
2023-04-09T05:10:56.668Z,74.61
2023-04-09T05:13:23.984Z,74.26
2023-04-09T05:15:50.793Z,74.38
2023-04-09T05:18:17.255Z,73.47
2023-04-09T05:20:43.729Z,73.70
2023-04-09T05:23:10.341Z,73.12
2023-04-09T05:25:36.801Z,72.84
2023-04-09T05:28:03.473Z,73.20
2023-04-09T05:30:29.968Z,73.38
2023-04-09T05:32:56.481Z,74.00
2023-04-09T05:35:22.982Z,72.74
2023-04-09T05:37:49.428Z,72.65
2023-04-09T05:40:15.901Z,72.80
2023-04-09T05:42:42.371Z,73.05
2023-04-09T05:45:09.529Z,72.92
2023-04-09T05:47:36.071Z,72.31
2023-04-09T05:50:02.548Z,72.21
2023-04-09T05:52:29.016Z,72.13
2023-04-09T05:54:55.703Z,71.40
2023-04-09T05:57:22.175Z,71.37
2023-04-09T05:59:48.685Z,70.87
2023-04-09T06:02:15.339Z,70.60
2023-04-09T06:04:41.928Z,69.96
2023-04-09T06:07:08.415Z,69.83
2023-04-09T06:09:34.900Z,69.93
2023-04-09T06:12:01.367Z,69.04
2023-04-09T06:14:27.834Z,68.88
2023-04-09T06:16:54.293Z,69.24
2023-04-09T06:19:20.824Z,68.09
2023-04-09T06:21:47.308Z,67.97
2023-04-09T06:24:13.800Z,68.04
2023-04-09T06:26:40.353Z,67.12
2023-04-09T06:29:06.935Z,67.40
2023-04-09T06:31:33.452Z,66.60
2023-04-09T06:34:00.328Z,66.20
2023-04-09T06:36:27.759Z,65.47
2023-04-09T06:38:54.426Z,65.01
2023-04-09T06:41:21.917Z,64.47
2023-04-09T06:43:48.497Z,64.70
2023-04-09T06:46:17.454Z,63.67
2023-04-09T06:48:44.730Z,64.34
2023-04-09T06:51:11.382Z,64.16
2023-04-09T06:53:38.491Z,63.02
2023-04-09T06:56:05.361Z,62.42
2023-04-09T06:58:31.813Z,62.44
2023-04-09T07:00:58.319Z,62.28
2023-04-09T07:03:25.005Z,61.41
2023-04-09T07:05:51.988Z,61.24
2023-04-09T07:08:18.438Z,60.66
2023-04-09T07:10:47.241Z,61.03
2023-04-09T07:13:13.685Z,59.90
2023-04-09T07:15:41.712Z,60.36
2023-04-09T07:18:09.438Z,59.22
2023-04-09T07:20:36.138Z,59.71
2023-04-09T07:23:02.665Z,59.49
2023-04-09T07:25:29.175Z,58.91
2023-04-09T07:27:56.316Z,58.09
2023-04-09T07:30:23.138Z,57.70
2023-04-09T07:32:49.650Z,58.56
2023-04-09T07:35:16.281Z,57.19
2023-04-09T07:37:42.893Z,57.72
2023-04-09T07:40:09.527Z,56.99
2023-04-09T07:42:38.646Z,56.62
2023-04-09T07:45:06.241Z,56.44
2023-04-09T07:47:32.954Z,55.80
2023-04-09T07:49:59.418Z,54.64
2023-04-09T07:52:26.109Z,55.68
2023-04-09T07:54:52.650Z,54.65
2023-04-09T07:57:19.175Z,55.03
2023-04-09T07:59:46.616Z,53.80
2023-04-09T08:02:15.029Z,53.07
2023-04-09T08:04:42.119Z,54.14
2023-04-09T08:07:08.712Z,54.39
2023-04-09T08:09:35.349Z,54.79
2023-04-09T08:12:01.863Z,54.09
2023-04-09T08:14:28.334Z,53.21
2023-04-09T08:16:54.927Z,53.41
2023-04-09T08:19:21.445Z,53.88
2023-04-09T08:21:50.745Z,53.39
2023-04-09T08:24:17.354Z,52.72
2023-04-09T08:26:44.004Z,52.49
2023-04-09T08:29:12.104Z,51.92
2023-04-09T08:31:38.624Z,50.62
2023-04-09T08:34:05.447Z,51.13
2023-04-09T08:36:32.507Z,50.13
2023-04-09T08:39:00.484Z,50.11
2023-04-09T08:41:30.836Z,48.15
2023-04-09T08:43:58.840Z,48.38
2023-04-09T08:46:26.414Z,48.51
2023-04-09T08:48:53.332Z,48.33
2023-04-09T08:51:21.698Z,46.79
2023-04-09T08:54:08.928Z,46.74
2023-04-09T08:56:35.692Z,45.97
2023-04-09T08:59:02.562Z,44.98
2023-04-09T09:01:29.786Z,45.56
2023-04-09T09:04:07.010Z,44.92
2023-04-09T09:06:38.090Z,43.57
2023-04-09T09:09:11.991Z,43.19
2023-04-09T09:11:41.239Z,43.79
2023-04-09T09:14:09.243Z,42.25
2023-04-09T09:16:39.987Z,42.69
2023-04-09T09:19:06.546Z,41.94
2023-04-09T09:21:33.346Z,41.78
2023-04-09T09:23:59.862Z,40.78
2023-04-09T09:26:30.204Z,41.82
2023-04-09T09:28:58.910Z,40.15
2023-04-09T09:31:25.745Z,39.39
2023-04-09T09:33:52.322Z,38.20
2023-04-09T09:36:34.667Z,38.13
2023-04-09T09:39:09.842Z,37.48
2023-04-09T09:41:36.664Z,37.85
2023-04-09T09:44:04.520Z,37.18
2023-04-09T09:46:41.436Z,36.63
2023-04-09T09:49:08.463Z,36.09
2023-04-09T09:51:39.850Z,35.10
2023-04-09T09:54:07.580Z,34.15
2023-04-09T09:56:38.515Z,33.29
2023-04-09T09:59:21.927Z,31.96
2023-04-09T10:01:48.500Z,31.18
2023-04-09T10:04:15.775Z,29.40
2023-04-09T10:06:43.718Z,28.05
2023-04-09T10:09:10.274Z,28.15
2023-04-09T10:11:37.220Z,26.79
2023-04-09T10:14:05.068Z,24.84
2023-04-09T10:16:31.768Z,25.40
2023-04-09T10:18:58.998Z,24.19
2023-04-09T10:21:33.433Z,23.34
2023-04-09T10:24:00.237Z,21.59
2023-04-09T10:26:31.034Z,21.91
2023-04-09T10:29:13.945Z,20.02
2023-04-09T10:31:53.301Z,19.66
2023-04-09T10:34:24.825Z,18.57
2023-04-09T10:36:57.663Z,17.79
2023-04-09T10:39:28.472Z,16.84
2023-04-09T10:41:57.255Z,15.86
2023-04-09T10:44:27.592Z,15.67
2023-04-09T10:46:54.913Z,15.24
2023-04-09T10:49:26.174Z,14.99
2023-04-09T10:52:11.590Z,14.68
2023-04-09T10:54:40.013Z,14.68
2023-04-09T10:57:20.800Z,13.45
2023-04-09T10:59:54.171Z,13.08
2023-04-09T11:02:38.972Z,13.74
2023-04-09T11:05:17.782Z,13.04
2023-04-09T11:07:45.392Z,12.04
2023-04-09T11:10:12.346Z,12.10
2023-04-09T11:12:38.855Z,12.31
2023-04-09T11:15:05.732Z,12.13
2023-04-09T11:17:35.942Z,11.18
2023-04-09T11:20:03.350Z,11.97
2023-04-09T11:22:29.803Z,11.42
2023-04-09T11:24:56.727Z,11.17
2023-04-09T11:27:23.251Z,12.30
2023-04-09T11:29:49.714Z,11.77
2023-04-09T11:32:16.263Z,10.70
2023-04-09T11:34:42.716Z,10.37
2023-04-09T11:37:14.446Z,10.04
2023-04-09T11:39:44.285Z,9.51
2023-04-09T11:42:17.311Z,10.36
2023-04-09T11:44:46.957Z,9.57
2023-04-09T11:47:13.741Z,10.04
2023-04-09T11:49:40.617Z,9.63
2023-04-09T11:52:07.100Z,10.07
2023-04-09T11:54:33.929Z,9.22
2023-04-09T11:57:01.762Z,9.41
2023-04-09T11:59:28.257Z,8.93
2023-04-09T12:01:54.794Z,7.85
2023-04-09T12:04:21.616Z,8.14
2023-04-09T12:06:48.449Z,9.20
2023-04-09T12:09:16.083Z,9.44
2023-04-09T12:11:46.072Z,9.26
2023-04-09T12:14:16.633Z,9.20
2023-04-09T12:16:45.931Z,8.66
2023-04-09T12:19:13.153Z,9.14
2023-04-09T12:21:49.921Z,8.89
2023-04-09T12:24:17.281Z,9.14
2023-04-09T12:26:45.165Z,8.83
2023-04-09T12:29:11.846Z,8.51
2023-04-09T12:31:38.350Z,8.78
2023-04-09T12:34:04.873Z,8.54
2023-04-09T12:36:31.458Z,8.65
2023-04-09T12:38:57.958Z,8.61
2023-04-09T12:41:24.449Z,8.70
2023-04-09T12:43:51.362Z,8.77
2023-04-09T12:46:19.160Z,8.84
2023-04-09T12:48:46.297Z,8.41
2023-04-09T12:51:13.512Z,8.45
2023-04-09T12:53:40.276Z,8.27
2023-04-09T12:56:07.157Z,8.22
2023-04-09T12:58:33.651Z,8.28
2023-04-09T13:01:00.176Z,8.30
2023-04-09T13:03:27.397Z,7.21
2023-04-09T13:05:54.225Z,7.92
2023-04-09T13:08:20.765Z,7.66
2023-04-09T13:10:47.267Z,7.37
2023-04-09T13:13:13.803Z,7.75
2023-04-09T13:15:43.557Z,7.67
2023-04-09T13:18:10.227Z,7.54
2023-04-09T13:20:37.118Z,7.71
2023-04-09T13:23:03.585Z,7.52
2023-04-09T13:25:30.268Z,7.60
2023-04-09T13:27:56.738Z,7.13
2023-04-09T13:30:23.236Z,7.54
2023-04-09T13:32:49.762Z,7.54
2023-04-09T13:35:16.266Z,6.80
2023-04-09T13:37:42.773Z,6.74
2023-04-09T13:40:09.592Z,6.99
2023-04-09T13:42:37.535Z,7.23
2023-04-09T13:45:04.902Z,7.13
2023-04-09T13:47:31.657Z,7.16
2023-04-09T13:49:58.163Z,6.84
2023-04-09T13:52:26.769Z,7.21
2023-04-09T13:54:56.188Z,6.94
2023-04-09T13:57:22.666Z,6.96
2023-04-09T13:59:49.613Z,6.33
2023-04-09T14:02:17.870Z,6.52
2023-04-09T14:04:44.683Z,6.46
2023-04-09T14:07:11.568Z,6.30
2023-04-09T14:09:38.034Z,6.96
2023-04-09T14:12:04.622Z,7.13
2023-04-09T14:14:31.163Z,6.55
2023-04-09T14:16:57.615Z,6.67
2023-04-09T14:19:24.125Z,6.73
2023-04-09T14:21:53.159Z,6.38
2023-04-09T14:24:22.811Z,7.02
2023-04-09T14:26:51.396Z,7.02
2023-04-09T14:29:17.866Z,7.15
2023-04-09T14:31:44.426Z,7.02
2023-04-09T14:34:10.948Z,7.01
2023-04-09T14:36:37.433Z,7.27
2023-04-09T14:39:03.976Z,6.87
2023-04-09T14:41:30.590Z,6.61
2023-04-09T14:43:57.056Z,6.99
2023-04-09T14:46:23.584Z,7.02
2023-04-09T14:48:50.312Z,7.34
2023-04-09T14:51:17.351Z,7.36
2023-04-09T14:53:43.828Z,7.12
2023-04-09T14:56:10.286Z,7.43
2023-04-09T14:58:37.241Z,7.18
2023-04-09T15:01:04.549Z,7.54
2023-04-09T15:03:31.276Z,7.80
2023-04-09T15:05:59.081Z,7.25
2023-04-09T15:08:25.564Z,7.64
2023-04-09T15:10:52.021Z,7.73
2023-04-09T15:13:18.494Z,7.96
2023-04-09T15:15:45.032Z,8.03
2023-04-09T15:18:11.497Z,7.72
2023-04-09T15:20:38.631Z,8.01
2023-04-09T15:23:05.275Z,8.12
2023-04-09T15:25:32.741Z,8.29
2023-04-09T15:27:59.250Z,8.25
2023-04-09T15:30:26.421Z,8.39
2023-04-09T15:32:53.025Z,8.87
2023-04-09T15:35:25.142Z,8.67
2023-04-09T15:37:51.557Z,8.96
2023-04-09T15:40:18.492Z,8.93
2023-04-09T15:42:44.949Z,9.12
2023-04-09T15:45:11.547Z,9.41
2023-04-09T15:47:38.058Z,9.50
2023-04-09T15:50:04.990Z,9.19
2023-04-09T15:52:31.590Z,9.46
2023-04-09T15:54:58.055Z,9.52
2023-04-09T15:57:24.525Z,9.19
2023-04-09T15:59:51.888Z,9.40
2023-04-09T16:02:18.981Z,9.74
2023-04-09T16:04:45.581Z,9.94
2023-04-09T16:07:16.007Z,10.04
2023-04-09T16:09:42.529Z,9.93
2023-04-09T16:12:09.047Z,10.62
2023-04-09T16:14:35.775Z,12.32
2023-04-09T16:17:02.392Z,14.63
2023-04-09T16:19:28.923Z,17.09
2023-04-09T16:21:55.687Z,19.00
2023-04-09T16:24:22.184Z,20.76
2023-04-09T16:26:48.723Z,23.00
2023-04-09T16:29:16.374Z,24.71
2023-04-09T16:31:42.962Z,26.18
2023-04-09T16:34:09.556Z,27.49
2023-04-09T16:36:37.125Z,29.47
2023-04-09T16:39:04.526Z,30.46
2023-04-09T16:41:31.028Z,30.88
2023-04-09T16:43:57.549Z,31.96
2023-04-09T16:46:24.162Z,33.43
2023-04-09T16:48:51.035Z,34.21
2023-04-09T16:51:17.686Z,34.73
2023-04-09T16:53:44.269Z,35.36
2023-04-09T16:56:10.752Z,36.67
2023-04-09T16:58:37.798Z,37.10
2023-04-09T17:01:04.467Z,37.30
2023-04-09T17:03:31.180Z,38.56
2023-04-09T17:05:57.756Z,39.48
2023-04-09T17:08:24.484Z,40.58
2023-04-09T17:10:51.852Z,40.19
2023-04-09T17:13:18.348Z,40.85
2023-04-09T17:15:44.828Z,42.39
2023-04-09T17:18:11.508Z,41.91
2023-04-09T17:20:38.026Z,41.54
2023-04-09T17:23:04.528Z,42.14
2023-04-09T17:25:31.003Z,43.16
2023-04-09T17:27:57.849Z,44.45
2023-04-09T17:30:24.318Z,44.36
2023-04-09T17:32:51.134Z,44.66
2023-04-09T17:35:17.726Z,45.43
2023-04-09T17:37:45.079Z,45.77
2023-04-09T17:40:12.924Z,46.15
2023-04-09T17:42:39.390Z,46.40
2023-04-09T17:45:06.593Z,46.58
2023-04-09T17:47:33.131Z,46.12
2023-04-09T17:49:59.986Z,46.92
2023-04-09T17:52:26.464Z,47.03
2023-04-09T17:54:53.001Z,47.63
2023-04-09T17:57:19.577Z,47.31
2023-04-09T17:59:46.138Z,47.69
2023-04-09T18:02:12.798Z,48.04
2023-04-09T18:04:39.653Z,47.88
2023-04-09T18:07:06.316Z,48.21
2023-04-09T18:09:32.802Z,48.56
2023-04-09T18:12:01.320Z,48.86
2023-04-09T18:14:27.914Z,49.07
2023-04-09T18:16:54.387Z,49.24
2023-04-09T18:19:20.937Z,49.54
2023-04-09T18:21:47.421Z,49.49
2023-04-09T18:24:13.998Z,49.70
2023-04-09T18:26:40.568Z,50.32
2023-04-09T18:29:08.419Z,50.50
2023-04-09T18:31:35.053Z,50.51
2023-04-09T18:34:01.621Z,50.82
2023-04-09T18:36:28.337Z,50.21
2023-04-09T18:38:55.982Z,51.29
2023-04-09T18:41:23.517Z,51.23
2023-04-09T18:43:50.068Z,51.22
2023-04-09T18:46:16.608Z,51.73
2023-04-09T18:48:47.028Z,51.78
2023-04-09T18:51:14.285Z,51.82
2023-04-09T18:53:41.605Z,52.30
2023-04-09T18:56:08.224Z,52.11
2023-04-09T18:58:34.758Z,52.54
2023-04-09T19:01:01.807Z,52.73
2023-04-09T19:03:30.745Z,53.45
2023-04-09T19:05:59.579Z,52.69
2023-04-09T19:08:27.283Z,53.16
2023-04-09T19:10:55.481Z,53.06
2023-04-09T19:13:21.938Z,53.57
2023-04-09T19:15:48.503Z,53.43
2023-04-09T19:18:16.888Z,53.55
2023-04-09T19:20:43.384Z,53.81
2023-04-09T19:23:10.761Z,53.20
2023-04-09T19:25:37.556Z,53.85
2023-04-09T19:28:04.062Z,53.88
2023-04-09T19:30:30.630Z,53.95
2023-04-09T19:32:57.131Z,53.94
2023-04-09T19:35:23.709Z,54.13
2023-04-09T19:37:50.211Z,54.89
2023-04-09T19:40:18.090Z,54.64
2023-04-09T19:42:44.629Z,54.82
2023-04-09T19:45:11.677Z,54.68
2023-04-09T19:47:38.214Z,54.20
2023-04-09T19:50:05.028Z,54.47
2023-04-09T19:52:31.736Z,54.40
2023-04-09T19:54:58.198Z,54.65
2023-04-09T19:57:26.336Z,54.55
2023-04-09T19:59:53.948Z,54.83
2023-04-09T20:02:20.591Z,54.58
2023-04-09T20:04:47.207Z,54.72
2023-04-09T20:07:14.244Z,55.03
2023-04-09T20:09:42.442Z,54.14
2023-04-09T20:12:09.838Z,54.94
2023-04-09T20:14:38.087Z,55.06
2023-04-09T20:17:05.082Z,54.91
2023-04-09T20:19:31.894Z,54.54
2023-04-09T20:22:00.227Z,54.35
2023-04-09T20:24:28.092Z,55.19
2023-04-09T20:26:54.745Z,55.04
2023-04-09T20:29:21.640Z,54.80
2023-04-09T20:31:48.209Z,54.75
2023-04-09T20:34:14.772Z,54.72
2023-04-09T20:36:43.557Z,54.96
2023-04-09T20:39:11.464Z,55.11
2023-04-09T20:41:38.009Z,54.95
2023-04-09T20:44:04.473Z,55.41
2023-04-09T20:46:30.951Z,55.28
2023-04-09T20:48:57.471Z,55.17
2023-04-09T20:51:23.923Z,55.04
2023-04-09T20:53:50.411Z,54.65
2023-04-09T20:56:17.382Z,54.91
2023-04-09T20:58:43.838Z,54.85
2023-04-09T21:01:10.427Z,55.29
2023-04-09T21:03:37.795Z,54.87
2023-04-09T21:06:04.558Z,55.09
2023-04-09T21:08:31.304Z,55.46
2023-04-09T21:10:57.837Z,55.42
2023-04-09T21:13:24.438Z,55.62
2023-04-09T21:15:51.222Z,55.81
2023-04-09T21:18:17.780Z,55.50
2023-04-09T21:20:45.539Z,55.46
2023-04-09T21:23:12.660Z,56.34
2023-04-09T21:25:39.154Z,56.00
2023-04-09T21:28:06.361Z,56.84
2023-04-09T21:30:40.280Z,56.53
2023-04-09T21:33:07.593Z,56.96
2023-04-09T21:35:34.897Z,56.81
2023-04-09T21:38:02.934Z,57.36
2023-04-09T21:40:30.072Z,57.58
2023-04-09T21:42:57.043Z,57.58
2023-04-09T21:45:23.720Z,57.73
2023-04-09T21:47:50.245Z,57.74
2023-04-09T21:50:16.822Z,58.25
2023-04-09T21:52:44.990Z,58.44
2023-04-09T21:55:11.479Z,58.30
2023-04-09T21:57:38.015Z,58.80
2023-04-09T22:00:05.364Z,58.60
2023-04-09T22:02:32.790Z,59.10
2023-04-09T22:04:59.975Z,59.29
2023-04-09T22:07:26.532Z,59.79
2023-04-09T22:09:57.185Z,60.04
2023-04-09T22:12:24.105Z,60.62
2023-04-09T22:14:50.966Z,61.22
2023-04-09T22:17:17.536Z,61.28
2023-04-09T22:19:44.276Z,61.00
2023-04-09T22:22:13.373Z,61.25
2023-04-09T22:24:39.979Z,61.58
2023-04-09T22:27:06.971Z,61.39
2023-04-09T22:29:33.821Z,60.76
2023-04-09T22:32:00.469Z,60.65
2023-04-09T22:34:26.935Z,60.79
2023-04-09T22:36:53.387Z,60.26
2023-04-09T22:39:19.881Z,60.82
2023-04-09T22:41:46.361Z,60.45
2023-04-09T22:44:12.861Z,60.72
2023-04-09T22:46:39.377Z,60.23
2023-04-09T22:49:06.427Z,60.25
2023-04-09T22:51:34.455Z,60.30
2023-04-09T22:54:01.858Z,59.81
2023-04-09T22:56:28.687Z,60.73
2023-04-09T22:58:55.749Z,61.45
2023-04-09T23:01:23.185Z,62.45
2023-04-09T23:03:49.957Z,62.92
2023-04-09T23:06:19.277Z,62.11
2023-04-09T23:08:45.802Z,62.59
2023-04-09T23:11:12.255Z,62.88
2023-04-09T23:13:38.790Z,62.70
2023-04-09T23:16:06.562Z,62.44
2023-04-09T23:18:34.277Z,63.05
2023-04-09T23:21:09.941Z,63.48
2023-04-09T23:23:36.593Z,62.67
2023-04-09T23:26:03.061Z,62.21
2023-04-09T23:28:29.783Z,63.61
2023-04-09T23:30:56.788Z,64.27
2023-04-09T23:33:23.277Z,64.64
2023-04-09T23:35:50.074Z,65.02
2023-04-09T23:38:16.619Z,65.32
2023-04-09T23:40:43.163Z,64.94
2023-04-09T23:43:09.646Z,65.52
2023-04-09T23:45:36.152Z,66.10
2023-04-09T23:48:03.502Z,66.07
2023-04-09T23:50:30.359Z,66.05
2023-04-09T23:52:59.935Z,66.15
2023-04-09T23:55:27.173Z,65.78
2023-04-09T23:57:53.820Z,65.65
